Bay Port, New York
Current Conditions -  °F | °C
As of 7:56 AM on Friday 19 Dec 2014 (Local Time) from KISP Reporting Station
Overcast Overcast  
Wind Chill: 30°   Ceiling: 4000
Heat Index: 37°   Visibility: 10mi
Dew Point: 25°   Wind: 9mph
Humidity: 62%   Direction: 300°WNW
Pressure: 29.98"   Gusts: NA
Location:  40.746°N, 73.0539°W
Report Text: KISP 191256Z 30008KT 10SM OVC040 03/M04 A2998 RMK AO2 SLP153 T00281039
Loading
Personal Weather Stations






























Interactive Weather Map New forecast layout! Learn more

10-Day Weather Forecast

Advertisements
Track Severe Weather on mobile